»·PEaware :: N123RG KCRQ-KSAN

N123RG :: KCRQ-KSAN

FLIGHT INFORMATION

Flight Status: Arrived
Operator: Privately registered:
United States
More flights under this callsign
Pilot: Anonymous 23223 (23223)
Aircraft: CESSNA 172 SKYHAWK
(C172)
More flights by this aircraft type
Origin: KCRQ McClellan-Palomar
United States
Destination: KSAN San Diego Intl-Lindbergh
United States
More flights between these airports :: More routes between these airports
Route: +MZB V66 RYAHH
File this flight plan on PilotEdge
Remarks:
Altitude:
(Current/Filed)
4,000ft
Speed:
(Current/Filed)
135kts
Departed: 07-Feb-20 02:43 PM
Arrived: 07-Feb-20 03:15 PM
Distance/Time
Traveled:
24nm/0:32
Distance/Time
To Go:
Arrived

Flight Plot

Page will automatically refresh every two minutes.


Map Options




Map Legend


Flown Route
Filed Route
Departure Airport
Arrival Airport
Navaid (VOR, NDB)
Fix

Horizontal Profiles

Position Reports

Time Latitude Longitude Heading Altitude Ground
Speed
07-Feb-20 14:23 33.126906 -117.277801 269 334ft 0kts
07-Feb-20 14:24 33.126906 -117.277801 269 334ft 0kts
07-Feb-20 14:25 33.126906 -117.277802 269 334ft 0kts
07-Feb-20 14:26 33.126906 -117.277803 269 334ft 0kts
07-Feb-20 14:27 33.126906 -117.277803 269 334ft 0kts
07-Feb-20 14:28 33.126906 -117.277804 269 334ft 0kts
07-Feb-20 14:29 33.126906 -117.277804 269 334ft 0kts
07-Feb-20 14:30 33.126906 -117.277805 269 334ft 0kts
07-Feb-20 14:31 33.126906 -117.277806 269 334ft 0kts
07-Feb-20 14:32 33.126906 -117.277806 269 334ft 0kts
07-Feb-20 14:33 33.126906 -117.277807 269 334ft 0kts
07-Feb-20 14:34 33.126906 -117.277808 269 334ft 0kts
07-Feb-20 14:35 33.126906 -117.277808 269 334ft 0kts
07-Feb-20 14:36 33.127368 -117.278443 33 334ft 10kts
07-Feb-20 14:37 33.127910 -117.275752 78 334ft 9kts
07-Feb-20 14:38 33.128607 -117.272380 7 334ft 5kts
07-Feb-20 14:39 33.128656 -117.272375 3 334ft 0kts
07-Feb-20 14:40 33.128656 -117.272375 3 334ft 0kts
07-Feb-20 14:41 33.129249 -117.272503 307 334ft 12kts
07-Feb-20 14:42 33.126937 -117.291868 265 924ft 93kts
07-Feb-20 14:43 33.124234 -117.324055 267 2196ft 98kts
07-Feb-20 14:44 33.122745 -117.356398 266 3350ft 99kts
07-Feb-20 14:45 33.118597 -117.390783 263 4109ft 105kts
07-Feb-20 14:46 33.110890 -117.423357 207 4725ft 113kts
07-Feb-20 14:47 33.077596 -117.408878 163 4886ft 143kts
07-Feb-20 14:48 33.041318 -117.386568 159 4875ft 148kts
07-Feb-20 14:49 33.004730 -117.363836 160 4875ft 148kts
07-Feb-20 14:50 32.968115 -117.341042 158 4878ft 148kts
07-Feb-20 14:51 32.931483 -117.318368 159 4873ft 148kts
07-Feb-20 14:52 32.894807 -117.295583 158 4878ft 148kts
07-Feb-20 14:53 32.858271 -117.272890 157 4875ft 148kts
07-Feb-20 14:54 32.823150 -117.247626 123 4854ft 155kts
07-Feb-20 14:55 32.814434 -117.197283 103 4877ft 156kts
07-Feb-20 14:56 32.806887 -117.146564 104 4876ft 156kts
07-Feb-20 14:57 32.799415 -117.095564 103 4877ft 156kts
07-Feb-20 14:58 32.791922 -117.044731 103 4876ft 156kts
07-Feb-20 14:59 32.784484 -116.993819 103 4876ft 156kts
07-Feb-20 15:00 32.776977 -116.943022 103 4875ft 156kts
07-Feb-20 15:02 32.769496 -116.892032 103 4874ft 156kts
07-Feb-20 15:03 32.745647 -116.881084 255 4897ft 133kts
07-Feb-20 15:04 32.719568 -116.893092 162 4905ft 145kts
07-Feb-20 15:05 32.683241 -116.883278 232 4879ft 135kts
07-Feb-20 15:06 32.672572 -116.920752 266 4467ft 124kts
07-Feb-20 15:07 32.678135 -116.961243 286 3900ft 122kts
07-Feb-20 15:08 32.687396 -116.998803 285 3584ft 113kts
07-Feb-20 15:09 32.694851 -117.029868 284 3263ft 83kts
07-Feb-20 15:10 32.701410 -117.056054 288 2858ft 83kts
07-Feb-20 15:11 32.707295 -117.082898 283 2392ft 84kts
07-Feb-20 15:12 32.715536 -117.113514 286 1457ft 103kts
07-Feb-20 15:13 32.723018 -117.145043 288 1007ft 93kts
07-Feb-20 15:14 32.729712 -117.173970 288 207ft 77kts
07-Feb-20 15:15 32.733889 -117.189912 327 18ft 8kts
07-Feb-20 15:16 32.734227 -117.188799 104 18ft 14kts

Navigation Log

Ident Type
Flight plan parsing failed, navigation log unavailable